createdAt,value
2022-10-19T00:02:18.524Z,10.81
2022-10-19T00:04:49.103Z,10.82
2022-10-19T00:07:19.573Z,10.85
2022-10-19T00:09:50.059Z,10.88
2022-10-19T00:12:20.423Z,10.91
2022-10-19T00:14:51.078Z,10.93
2022-10-19T00:17:21.424Z,10.96
2022-10-19T00:19:52.291Z,10.97
2022-10-19T00:22:23.026Z,10.99
2022-10-19T00:24:54.026Z,10.99
2022-10-19T00:27:24.377Z,10.99
2022-10-19T00:29:54.802Z,11.01
2022-10-19T00:32:25.115Z,11.02
2022-10-19T00:34:55.535Z,11.04
2022-10-19T00:37:26.009Z,11.05
2022-10-19T00:39:56.780Z,11.07
2022-10-19T00:42:27.366Z,11.09
2022-10-19T00:45:04.412Z,11.10
2022-10-19T00:47:35.548Z,11.11
2022-10-19T00:50:07.033Z,11.11
2022-10-19T00:52:37.719Z,11.11
2022-10-19T00:55:11.882Z,11.11
2022-10-19T00:57:42.377Z,11.11
2022-10-19T01:00:13.999Z,11.11
2022-10-19T01:02:44.792Z,11.11
2022-10-19T01:05:17.149Z,11.12
2022-10-19T01:07:47.961Z,11.14
2022-10-19T01:10:22.318Z,11.16
2022-10-19T01:13:06.451Z,11.18
2022-10-19T01:15:46.750Z,11.21
2022-10-19T01:18:23.093Z,11.25
2022-10-19T01:21:13.154Z,11.27
2022-10-19T01:24:10.871Z,11.29
2022-10-19T01:27:06.486Z,11.31
2022-10-19T01:29:53.069Z,11.32
2022-10-19T01:32:32.686Z,11.33
2022-10-19T01:35:11.156Z,11.31
2022-10-19T01:37:49.875Z,11.31
2022-10-19T01:40:30.636Z,11.29
2022-10-19T01:43:05.534Z,11.28
2022-10-19T01:45:43.867Z,11.28
2022-10-19T01:48:18.631Z,11.27
2022-10-19T01:50:55.151Z,11.28
2022-10-19T01:53:28.513Z,11.27
2022-10-19T01:56:00.932Z,11.27
2022-10-19T01:58:36.634Z,11.27
2022-10-19T02:03:47.008Z,11.28
2022-10-19T02:06:17.817Z,11.29
2022-10-19T02:08:50.311Z,11.30
2022-10-19T02:11:22.774Z,11.29
2022-10-19T02:13:57.644Z,11.29
2022-10-19T02:16:31.733Z,11.30
2022-10-19T02:19:04.148Z,11.28
2022-10-19T02:21:34.995Z,11.25
2022-10-19T02:24:06.051Z,11.25
2022-10-19T02:26:36.921Z,11.24
2022-10-19T02:29:08.005Z,11.25
2022-10-19T02:31:38.983Z,11.25
2022-10-19T02:34:10.318Z,11.25
2022-10-19T02:36:41.094Z,11.25
2022-10-19T02:39:11.668Z,11.25
2022-10-19T02:41:47.003Z,11.24
2022-10-19T02:44:23.969Z,11.24
2022-10-19T02:47:01.556Z,11.23
2022-10-19T02:49:35.287Z,11.23
2022-10-19T02:52:07.306Z,11.24
2022-10-19T02:54:38.180Z,11.22
2022-10-19T02:57:18.425Z,11.22
2022-10-19T02:59:49.686Z,11.22
2022-10-19T03:02:21.517Z,11.23
2022-10-19T03:04:52.698Z,11.24
2022-10-19T03:07:24.006Z,11.24
2022-10-19T03:09:54.433Z,11.23
2022-10-19T03:12:24.756Z,11.22
2022-10-19T03:14:55.157Z,11.22
2022-10-19T03:17:25.532Z,11.21
2022-10-19T03:19:56.069Z,11.20
2022-10-19T03:22:26.428Z,11.19
2022-10-19T03:24:56.839Z,11.18
2022-10-19T03:27:27.286Z,11.18
2022-10-19T03:29:58.294Z,11.17
2022-10-19T03:32:29.194Z,11.15
2022-10-19T03:34:59.603Z,11.15
2022-10-19T03:37:29.936Z,11.15
2022-10-19T03:40:00.401Z,11.16
2022-10-19T03:42:31.318Z,11.15
2022-10-19T03:45:02.494Z,11.15
2022-10-19T03:47:33.521Z,11.17
2022-10-19T03:50:06.106Z,11.18
2022-10-19T03:52:36.831Z,11.19
2022-10-19T03:55:09.110Z,11.19
2022-10-19T03:57:39.540Z,11.19
2022-10-19T04:00:12.929Z,11.19
2022-10-19T04:02:43.302Z,11.19
2022-10-19T04:05:14.058Z,11.19
2022-10-19T04:07:44.662Z,11.20
2022-10-19T04:10:15.652Z,11.20
2022-10-19T04:12:49.428Z,11.20
2022-10-19T04:15:23.580Z,11.19
2022-10-19T04:17:54.260Z,11.19
2022-10-19T04:20:25.046Z,11.19
2022-10-19T04:22:56.744Z,11.21
2022-10-19T04:25:27.829Z,11.21
2022-10-19T04:27:59.073Z,11.21
2022-10-19T04:30:29.934Z,11.22
2022-10-19T04:33:00.394Z,11.22
2022-10-19T04:35:31.497Z,11.22
2022-10-19T04:38:02.557Z,11.23
2022-10-19T04:40:35.002Z,11.23
2022-10-19T04:43:06.630Z,11.21
2022-10-19T04:45:39.388Z,11.20
2022-10-19T04:48:10.061Z,11.21
2022-10-19T04:50:41.321Z,11.21
2022-10-19T04:53:12.236Z,11.21
2022-10-19T04:55:44.576Z,11.20
2022-10-19T04:58:15.233Z,11.19
2022-10-19T05:00:46.258Z,11.18
2022-10-19T05:03:18.276Z,11.18
2022-10-19T05:05:48.901Z,11.17
2022-10-19T05:08:19.501Z,11.18
2022-10-19T05:10:50.480Z,11.19
2022-10-19T05:13:21.501Z,11.20
2022-10-19T05:15:59.760Z,11.22
2022-10-19T05:18:31.507Z,11.22
2022-10-19T05:21:06.605Z,11.22
2022-10-19T05:23:37.467Z,11.23
2022-10-19T05:26:09.511Z,11.24
2022-10-19T05:28:40.670Z,11.26
2022-10-19T05:31:13.830Z,11.26
2022-10-19T05:33:45.143Z,11.27
2022-10-19T05:36:21.190Z,11.28
2022-10-19T05:38:53.768Z,11.29
2022-10-19T05:41:25.825Z,11.30
2022-10-19T05:43:57.458Z,11.32
2022-10-19T05:46:29.410Z,11.32
2022-10-19T05:49:01.061Z,11.33
2022-10-19T05:51:32.028Z,11.36
2022-10-19T05:54:02.403Z,11.36
2022-10-19T05:56:33.802Z,11.36
2022-10-19T05:59:06.242Z,11.36
2022-10-19T06:01:37.443Z,11.38
2022-10-19T06:04:08.108Z,11.39
2022-10-19T06:06:39.036Z,11.39
2022-10-19T06:09:09.623Z,11.38
2022-10-19T06:11:42.416Z,11.37
2022-10-19T06:14:16.223Z,11.36
2022-10-19T06:16:47.069Z,11.35
2022-10-19T06:19:17.763Z,11.34
2022-10-19T06:21:48.524Z,11.34
2022-10-19T06:24:19.338Z,11.34
2022-10-19T06:26:49.802Z,11.32
2022-10-19T06:29:20.409Z,11.30
2022-10-19T06:31:52.159Z,11.30
2022-10-19T06:34:22.811Z,11.29
2022-10-19T06:36:53.224Z,11.29
2022-10-19T06:39:23.535Z,11.29
2022-10-19T06:41:54.030Z,11.29
2022-10-19T06:44:24.461Z,11.31
2022-10-19T06:46:54.928Z,11.32
2022-10-19T06:49:25.274Z,11.33
2022-10-19T06:51:55.609Z,11.34
2022-10-19T06:54:26.153Z,11.36
2022-10-19T06:56:56.865Z,11.37
2022-10-19T06:59:27.354Z,11.38
2022-10-19T07:01:57.685Z,11.41
2022-10-19T07:04:28.067Z,11.43
2022-10-19T07:06:58.454Z,11.45
2022-10-19T07:09:28.984Z,11.47
2022-10-19T07:11:59.327Z,11.47
2022-10-19T07:14:29.754Z,11.48
2022-10-19T07:17:00.154Z,11.49
2022-10-19T07:19:30.945Z,11.50
2022-10-19T07:22:01.276Z,11.52
2022-10-19T07:24:31.940Z,11.54
2022-10-19T07:27:02.345Z,11.58
2022-10-19T07:29:33.134Z,11.61
2022-10-19T07:32:03.589Z,11.64
2022-10-19T07:34:34.210Z,11.67
2022-10-19T07:37:04.846Z,11.69
2022-10-19T07:39:35.354Z,11.70
2022-10-19T07:42:08.128Z,11.72
2022-10-19T07:44:38.925Z,11.72
2022-10-19T07:47:10.419Z,11.77
2022-10-19T07:49:40.827Z,11.80
2022-10-19T07:52:11.566Z,11.84
2022-10-19T07:54:42.588Z,11.86
2022-10-19T07:57:15.577Z,11.88
2022-10-19T07:59:45.967Z,11.92
2022-10-19T08:02:18.646Z,11.94
2022-10-19T08:05:00.781Z,11.97
2022-10-19T08:07:33.583Z,12.00
2022-10-19T08:10:04.513Z,12.02
2022-10-19T08:12:38.644Z,12.06
2022-10-19T08:15:10.673Z,12.08
2022-10-19T08:17:41.062Z,12.12
2022-10-19T08:20:13.469Z,12.15
2022-10-19T08:22:45.300Z,12.18
2022-10-19T08:25:16.301Z,12.20
2022-10-19T08:27:47.144Z,12.22
2022-10-19T08:30:18.269Z,12.23
2022-10-19T08:32:48.713Z,12.26
2022-10-19T08:35:19.561Z,12.30
2022-10-19T08:37:50.275Z,12.32
2022-10-19T08:40:25.031Z,12.34
2022-10-19T08:43:03.137Z,12.37
2022-10-19T08:45:42.936Z,12.41
2022-10-19T08:48:26.781Z,12.46
2022-10-19T08:50:59.365Z,12.48
2022-10-19T08:53:38.612Z,12.50
2022-10-19T08:56:38.843Z,12.53
2022-10-19T08:59:21.238Z,12.58
2022-10-19T09:01:55.369Z,12.61
2022-10-19T09:04:29.645Z,12.65
2022-10-19T09:07:14.357Z,12.66
2022-10-19T09:09:47.424Z,12.66
2022-10-19T09:12:25.849Z,12.69
2022-10-19T09:15:01.868Z,12.73
2022-10-19T09:17:34.187Z,12.76
2022-10-19T09:20:18.359Z,12.79
2022-10-19T09:23:00.412Z,12.83
2022-10-19T09:25:34.855Z,12.88
2022-10-19T09:28:20.517Z,12.93
2022-10-19T09:30:54.223Z,12.94
2022-10-19T09:33:29.468Z,12.94
2022-10-19T09:36:01.619Z,12.94
2022-10-19T09:38:32.650Z,12.99
2022-10-19T09:41:16.597Z,13.03
2022-10-19T09:43:53.581Z,13.12
2022-10-19T09:46:38.885Z,13.20
2022-10-19T09:49:09.889Z,13.24
2022-10-19T09:51:51.702Z,13.28
2022-10-19T09:54:35.870Z,13.35
2022-10-19T09:57:06.992Z,13.35
2022-10-19T09:59:38.850Z,13.32
2022-10-19T10:02:21.774Z,13.32
2022-10-19T10:05:04.483Z,13.32
2022-10-19T10:07:39.980Z,13.36
2022-10-19T10:10:28.168Z,13.36
2022-10-19T10:13:02.819Z,13.43
2022-10-19T10:15:44.121Z,13.47
2022-10-19T10:18:18.746Z,13.48
2022-10-19T10:21:07.051Z,13.48
2022-10-19T10:23:38.400Z,13.44
2022-10-19T10:26:20.064Z,13.43
2022-10-19T10:28:51.454Z,13.45
2022-10-19T10:31:26.720Z,13.49
2022-10-19T10:34:10.783Z,13.55
2022-10-19T10:36:55.025Z,13.63
2022-10-19T10:39:27.096Z,13.66
2022-10-19T10:42:03.095Z,13.65
2022-10-19T10:44:36.845Z,13.64
2022-10-19T10:47:14.919Z,13.61
2022-10-19T10:49:54.387Z,13.52
2022-10-19T10:52:27.832Z,13.43
2022-10-19T10:55:05.220Z,13.37
2022-10-19T10:57:39.778Z,13.33
2022-10-19T11:00:15.488Z,13.31
2022-10-19T11:02:53.236Z,13.31
2022-10-19T11:05:27.634Z,13.35
2022-10-19T11:08:04.615Z,13.39
2022-10-19T11:10:40.582Z,13.45
2022-10-19T11:13:15.537Z,13.54
2022-10-19T11:15:54.157Z,13.62
2022-10-19T11:18:28.758Z,13.71
2022-10-19T11:21:07.602Z,13.82
2022-10-19T11:23:55.408Z,13.91
2022-10-19T11:26:48.601Z,14.02
2022-10-19T11:29:39.370Z,14.10
2022-10-19T11:32:20.999Z,14.19
2022-10-19T11:35:05.835Z,14.26
2022-10-19T11:37:49.830Z,14.32
2022-10-19T11:40:40.278Z,14.36
2022-10-19T11:43:24.873Z,14.41
2022-10-19T11:46:06.136Z,14.47
2022-10-19T11:48:55.029Z,14.53
2022-10-19T11:51:35.033Z,14.54
2022-10-19T11:54:19.739Z,14.53
2022-10-19T11:57:04.017Z,14.54
2022-10-19T11:59:50.851Z,14.54
2022-10-19T12:02:44.023Z,14.53
2022-10-19T12:05:19.471Z,14.55
2022-10-19T12:08:04.135Z,14.60
2022-10-19T12:10:44.706Z,14.63
2022-10-19T12:13:20.902Z,14.63
2022-10-19T12:15:54.679Z,14.65
2022-10-19T12:18:30.792Z,14.59
2022-10-19T12:21:03.724Z,14.56
2022-10-19T12:23:37.485Z,14.48
2022-10-19T12:26:10.491Z,14.40
2022-10-19T12:28:43.557Z,14.30
2022-10-19T12:31:15.238Z,14.20
2022-10-19T12:33:51.624Z,14.12
2022-10-19T12:36:32.878Z,14.01
2022-10-19T12:39:11.395Z,13.90
2022-10-19T12:41:53.274Z,13.83
2022-10-19T12:44:58.688Z,13.75
2022-10-19T12:47:30.016Z,13.66
2022-10-19T12:50:01.491Z,13.62
2022-10-19T12:52:40.863Z,13.60
2022-10-19T12:55:27.082Z,13.60
2022-10-19T12:58:04.136Z,13.60
2022-10-19T13:00:37.304Z,13.58
2022-10-19T13:03:17.079Z,13.63
2022-10-19T13:05:58.571Z,13.70
2022-10-19T13:08:38.907Z,13.78
2022-10-19T13:11:14.647Z,13.86
2022-10-19T13:13:56.854Z,13.95
2022-10-19T13:16:56.820Z,14.03
2022-10-19T13:19:27.737Z,14.10
2022-10-19T13:22:24.636Z,14.14
2022-10-19T13:25:28.099Z,14.19
2022-10-19T13:28:02.957Z,14.24
2022-10-19T13:31:06.103Z,14.28
2022-10-19T13:33:56.355Z,14.34
2022-10-19T13:36:27.973Z,14.39
2022-10-19T13:39:17.298Z,14.42
2022-10-19T13:41:53.925Z,14.43
2022-10-19T13:44:35.290Z,14.44
2022-10-19T13:47:31.347Z,14.45
2022-10-19T13:50:21.688Z,14.44
2022-10-19T13:53:31.462Z,14.44
2022-10-19T13:56:16.940Z,14.44
2022-10-19T13:59:32.562Z,14.45
2022-10-19T14:02:36.428Z,14.43
2022-10-19T14:05:22.134Z,14.39
2022-10-19T14:08:04.923Z,14.37
2022-10-19T14:10:56.319Z,14.34
2022-10-19T14:13:27.609Z,14.32
2022-10-19T14:16:00.556Z,14.30
2022-10-19T14:18:32.797Z,14.24
2022-10-19T14:21:05.852Z,14.17
2022-10-19T14:23:39.821Z,14.08
2022-10-19T14:26:15.821Z,14.00
2022-10-19T14:28:46.317Z,13.93
2022-10-19T14:31:22.613Z,13.87
2022-10-19T14:33:57.573Z,13.81
2022-10-19T14:36:34.334Z,13.76
2022-10-19T14:39:05.474Z,13.68
2022-10-19T14:41:38.413Z,13.63
2022-10-19T14:44:31.163Z,13.60
2022-10-19T14:47:03.481Z,13.57
2022-10-19T14:49:34.511Z,13.55
2022-10-19T14:52:06.842Z,13.53
2022-10-19T14:54:42.649Z,13.49
2022-10-19T14:57:18.276Z,13.48
2022-10-19T14:59:51.131Z,13.46
2022-10-19T15:02:25.021Z,13.43
2022-10-19T15:04:56.660Z,13.44
2022-10-19T15:07:31.441Z,13.42
2022-10-19T15:10:05.156Z,13.42
2022-10-19T15:12:41.318Z,13.42
2022-10-19T15:15:18.847Z,13.41
2022-10-19T15:17:56.887Z,13.39
2022-10-19T15:20:31.371Z,13.37
2022-10-19T15:23:23.773Z,13.36
2022-10-19T15:26:09.572Z,13.33
2022-10-19T15:28:43.436Z,13.28
2022-10-19T15:31:26.317Z,13.24
2022-10-19T15:33:59.198Z,13.19
2022-10-19T15:36:31.080Z,13.14
2022-10-19T15:39:18.089Z,13.10
2022-10-19T15:41:55.880Z,13.04
2022-10-19T15:44:41.088Z,12.98
2022-10-19T15:47:24.644Z,12.92
2022-10-19T15:50:00.656Z,12.86
2022-10-19T15:52:33.494Z,12.79
2022-10-19T15:55:04.542Z,12.72
2022-10-19T15:57:36.926Z,12.66
2022-10-19T16:00:15.726Z,12.59
2022-10-19T16:02:46.599Z,12.53
2022-10-19T16:05:17.318Z,12.48
2022-10-19T16:07:48.202Z,12.44
2022-10-19T16:10:20.376Z,12.40
2022-10-19T16:12:50.864Z,12.36
2022-10-19T16:15:23.690Z,12.31
2022-10-19T16:17:57.549Z,12.26
2022-10-19T16:20:29.764Z,12.19
2022-10-19T16:23:00.559Z,12.12
2022-10-19T16:25:31.403Z,12.03
2022-10-19T16:28:02.117Z,11.97
2022-10-19T16:30:32.680Z,11.90
2022-10-19T16:33:03.684Z,11.81
2022-10-19T16:35:34.742Z,11.74
2022-10-19T16:38:05.287Z,11.67
2022-10-19T16:40:36.027Z,11.61
2022-10-19T16:43:06.826Z,11.57
2022-10-19T16:45:37.237Z,11.51
2022-10-19T16:48:08.432Z,11.45
2022-10-19T16:50:39.144Z,11.37
2022-10-19T16:53:11.291Z,11.35
2022-10-19T16:55:42.243Z,11.31
2022-10-19T16:58:12.625Z,11.26
2022-10-19T17:00:42.984Z,11.21
2022-10-19T17:03:13.458Z,11.15
2022-10-19T17:05:44.247Z,11.11
2022-10-19T17:08:14.955Z,11.05
2022-10-19T17:10:45.434Z,11.00
2022-10-19T17:13:16.157Z,10.95
2022-10-19T17:15:46.460Z,10.91
2022-10-19T17:20:55.626Z,10.80
2022-10-19T17:23:26.188Z,10.75
2022-10-19T17:25:56.837Z,10.70
2022-10-19T17:28:27.880Z,10.65
2022-10-19T17:31:03.177Z,10.59
2022-10-19T17:33:34.117Z,10.55
2022-10-19T17:36:10.490Z,10.50
2022-10-19T17:38:41.314Z,10.45
2022-10-19T17:41:14.112Z,10.41
2022-10-19T17:43:46.454Z,10.36
2022-10-19T17:46:18.072Z,10.32
2022-10-19T17:48:48.582Z,10.29
2022-10-19T17:51:21.412Z,10.26
2022-10-19T17:53:52.309Z,10.23
2022-10-19T17:56:23.865Z,10.22
2022-10-19T17:58:54.269Z,10.20
2022-10-19T18:01:25.933Z,10.18
2022-10-19T18:03:56.873Z,10.15
2022-10-19T18:06:29.525Z,10.13
2022-10-19T18:09:01.405Z,10.12
2022-10-19T18:11:34.529Z,10.10
2022-10-19T18:14:05.575Z,10.08
2022-10-19T18:16:38.495Z,10.05
2022-10-19T18:19:10.137Z,10.02
2022-10-19T18:21:42.191Z,10.00
2022-10-19T18:24:16.720Z,9.97
2022-10-19T18:26:48.628Z,9.94
2022-10-19T18:29:21.555Z,9.90
2022-10-19T18:31:52.699Z,9.86
2022-10-19T18:34:25.651Z,9.82
2022-10-19T18:36:56.766Z,9.77
2022-10-19T18:39:27.414Z,9.73
2022-10-19T18:41:58.093Z,9.70
2022-10-19T18:44:29.576Z,9.66
2022-10-19T18:47:03.029Z,9.62
2022-10-19T18:49:33.878Z,9.58
2022-10-19T18:52:04.793Z,9.55
2022-10-19T18:54:35.316Z,9.54
2022-10-19T18:57:05.849Z,9.50
2022-10-19T18:59:36.391Z,9.46
2022-10-19T19:02:13.619Z,9.42
2022-10-19T19:04:53.272Z,9.38
2022-10-19T19:07:24.005Z,9.34
2022-10-19T19:09:54.457Z,9.30
2022-10-19T19:12:25.233Z,9.27
2022-10-19T19:14:55.934Z,9.23
2022-10-19T19:17:26.814Z,9.19
2022-10-19T19:19:57.645Z,9.13
2022-10-19T19:22:28.307Z,9.10
2022-10-19T19:24:59.157Z,9.08
2022-10-19T19:27:31.869Z,9.04
2022-10-19T19:30:05.897Z,9.00
2022-10-19T19:32:37.277Z,8.96
2022-10-19T19:35:09.140Z,8.91
2022-10-19T19:37:40.031Z,8.83
2022-10-19T19:40:12.586Z,8.80
2022-10-19T19:42:44.786Z,8.77
2022-10-19T19:45:15.741Z,8.73
2022-10-19T19:47:46.909Z,8.71
2022-10-19T19:50:18.072Z,8.70
2022-10-19T19:52:49.083Z,8.69
2022-10-19T19:55:19.594Z,8.69
2022-10-19T19:57:53.829Z,8.71
2022-10-19T20:00:25.463Z,8.72
2022-10-19T20:02:57.335Z,8.71
2022-10-19T20:05:29.003Z,8.73
2022-10-19T20:08:00.150Z,8.74
2022-10-19T20:10:31.287Z,8.73
2022-10-19T20:13:01.969Z,8.71
2022-10-19T20:15:32.680Z,8.68
2022-10-19T20:18:03.915Z,8.63
2022-10-19T20:20:34.762Z,8.57
2022-10-19T20:23:05.494Z,8.51
2022-10-19T20:25:38.674Z,8.45
2022-10-19T20:28:09.136Z,8.40
2022-10-19T20:30:40.105Z,8.35
2022-10-19T20:33:11.107Z,8.33
2022-10-19T20:35:41.600Z,8.29
2022-10-19T20:38:12.338Z,8.26
2022-10-19T20:40:43.182Z,8.26
2022-10-19T20:43:15.253Z,8.23
2022-10-19T20:45:45.697Z,8.21
2022-10-19T20:48:17.263Z,8.19
2022-10-19T20:50:47.813Z,8.17
2022-10-19T20:53:18.422Z,8.18
2022-10-19T20:55:49.131Z,8.16
2022-10-19T20:58:20.290Z,8.13
2022-10-19T21:00:51.094Z,8.12
2022-10-19T21:03:23.746Z,8.11
2022-10-19T21:05:54.407Z,8.09
2022-10-19T21:08:24.881Z,8.06
2022-10-19T21:10:55.577Z,8.05
2022-10-19T21:13:26.049Z,8.03
2022-10-19T21:15:57.054Z,8.01
2022-10-19T21:18:27.794Z,7.95
2022-10-19T21:20:58.529Z,7.90
2022-10-19T21:23:30.137Z,7.86
2022-10-19T21:26:00.844Z,7.81
2022-10-19T21:28:31.647Z,7.80
2022-10-19T21:31:06.309Z,7.78
2022-10-19T21:33:37.324Z,7.78
2022-10-19T21:36:09.960Z,7.76
2022-10-19T21:38:40.837Z,7.74
2022-10-19T21:41:13.899Z,7.73
2022-10-19T21:43:44.974Z,7.72
2022-10-19T21:46:18.038Z,7.70
2022-10-19T21:48:49.070Z,7.70
2022-10-19T21:51:27.860Z,7.68
2022-10-19T21:53:58.281Z,7.61
2022-10-19T21:56:29.174Z,7.56
2022-10-19T21:59:00.018Z,7.51
2022-10-19T22:01:36.019Z,7.50
2022-10-19T22:04:13.067Z,7.49
2022-10-19T22:06:44.670Z,7.46
2022-10-19T22:09:17.713Z,7.45
2022-10-19T22:11:49.276Z,7.43
2022-10-19T22:14:19.717Z,7.43
2022-10-19T22:16:50.163Z,7.41
2022-10-19T22:19:20.566Z,7.39
2022-10-19T22:21:50.922Z,7.36
2022-10-19T22:24:21.588Z,7.33
2022-10-19T22:26:51.984Z,7.27
2022-10-19T22:29:22.426Z,7.22
2022-10-19T22:31:53.380Z,7.20
2022-10-19T22:34:24.036Z,7.17
2022-10-19T22:36:54.801Z,7.13
2022-10-19T22:39:27.781Z,7.11
2022-10-19T22:41:58.472Z,7.08
2022-10-19T22:44:29.183Z,7.07
2022-10-19T22:47:00.211Z,7.05
2022-10-19T22:49:30.790Z,7.05
2022-10-19T22:52:01.109Z,7.05
2022-10-19T22:54:31.732Z,7.04
2022-10-19T22:57:02.340Z,7.04
2022-10-19T22:59:33.191Z,7.06
2022-10-19T23:02:04.087Z,7.09
2022-10-19T23:04:35.178Z,7.11
2022-10-19T23:07:06.242Z,7.10
2022-10-19T23:09:37.267Z,7.10
2022-10-19T23:12:08.472Z,7.10
2022-10-19T23:14:39.125Z,7.12
2022-10-19T23:17:09.676Z,7.12
2022-10-19T23:19:40.001Z,7.12
2022-10-19T23:22:10.732Z,7.09
2022-10-19T23:24:41.870Z,7.08
2022-10-19T23:27:13.409Z,7.07
2022-10-19T23:29:44.261Z,7.08
2022-10-19T23:32:14.873Z,7.06
2022-10-19T23:34:47.573Z,7.03
2022-10-19T23:37:18.916Z,7.01
2022-10-19T23:39:49.237Z,7.01
2022-10-19T23:42:19.960Z,6.99
2022-10-19T23:44:50.604Z,6.98
2022-10-19T23:47:20.970Z,6.98
2022-10-19T23:49:51.684Z,6.96
2022-10-19T23:52:22.349Z,6.94
2022-10-19T23:54:53.425Z,6.92
2022-10-19T23:57:24.079Z,6.91
2022-10-19T23:59:54.452Z,6.87
